createdAt,value
2019-05-16T00:00:49.771Z,20.00
2019-05-16T00:01:49.557Z,20.00
2019-05-16T00:02:49.544Z,20.00
2019-05-16T00:03:49.526Z,20.00
2019-05-16T00:04:49.517Z,20.00
2019-05-16T00:05:54.218Z,20.00
2019-05-16T00:06:50.496Z,20.00
2019-05-16T00:07:49.481Z,20.00
2019-05-16T00:08:49.475Z,20.00
2019-05-16T00:09:49.462Z,24.00
2019-05-16T00:10:49.450Z,24.00
2019-05-16T00:11:49.456Z,20.00
2019-05-16T00:12:49.432Z,24.00
2019-05-16T00:13:49.416Z,24.00
2019-05-16T00:14:49.403Z,24.00
2019-05-16T00:15:49.399Z,24.00
2019-05-16T00:16:49.388Z,24.00
2019-05-16T00:17:49.381Z,28.00
2019-05-16T00:18:49.359Z,24.00
2019-05-16T00:19:49.348Z,28.00
2019-05-16T00:20:49.399Z,24.00
2019-05-16T00:21:49.324Z,28.00
2019-05-16T00:22:49.318Z,28.00
2019-05-16T00:23:50.003Z,28.00
2019-05-16T00:24:49.296Z,32.00
2019-05-16T00:25:49.285Z,32.00
2019-05-16T00:27:03.024Z,32.00
2019-05-16T00:27:49.277Z,36.00
2019-05-16T00:28:49.251Z,32.00
2019-05-16T00:29:49.240Z,32.00
2019-05-16T00:30:49.233Z,36.00
2019-05-16T00:31:49.212Z,40.00
2019-05-16T00:32:49.204Z,40.00
2019-05-16T00:33:49.221Z,40.00
2019-05-16T00:34:49.184Z,44.00
2019-05-16T00:36:01.993Z,48.00
2019-05-16T00:36:50.161Z,48.00
2019-05-16T00:37:49.149Z,52.00
2019-05-16T00:38:49.144Z,52.00
2019-05-16T00:39:49.192Z,56.00
2019-05-16T00:40:49.112Z,60.00
2019-05-16T00:41:49.106Z,64.00
2019-05-16T00:42:49.440Z,68.00
2019-05-16T00:43:50.001Z,72.00
2019-05-16T00:44:49.081Z,76.00
2019-05-16T00:45:49.083Z,80.00
2019-05-16T00:46:49.047Z,88.00
2019-05-16T00:47:49.039Z,92.00
2019-05-16T00:48:49.029Z,100.00
2019-05-16T00:49:49.015Z,104.00
2019-05-16T00:50:49.049Z,112.00
2019-05-16T00:51:49.007Z,120.00
2019-05-16T00:52:48.990Z,128.00
2019-05-16T00:53:48.977Z,132.00
2019-05-16T00:54:48.967Z,144.00
2019-05-16T00:55:48.956Z,152.00
2019-05-16T00:56:48.977Z,164.00
2019-05-16T00:58:01.970Z,172.00
2019-05-16T00:58:48.930Z,188.00
2019-05-16T00:59:48.917Z,196.00
2019-05-16T01:00:49.753Z,208.00
2019-05-16T01:01:50.131Z,224.00
2019-05-16T01:02:48.894Z,236.00
2019-05-16T01:03:48.872Z,256.00
2019-05-16T01:04:48.864Z,268.00
2019-05-16T01:05:48.909Z,284.00
2019-05-16T01:06:49.528Z,296.00
2019-05-16T01:07:49.073Z,316.00
2019-05-16T01:08:49.048Z,332.00
2019-05-16T01:09:48.940Z,356.00
2019-05-16T01:10:51.397Z,372.00
2019-05-16T01:11:48.813Z,396.00
2019-05-16T01:12:48.769Z,416.00
2019-05-16T01:13:48.916Z,440.00
2019-05-16T01:14:48.752Z,460.00
2019-05-16T01:15:48.877Z,488.00
2019-05-16T01:16:48.910Z,512.00
2019-05-16T01:17:48.724Z,536.00
2019-05-16T01:18:48.916Z,568.00
2019-05-16T01:19:48.737Z,596.00
2019-05-16T01:20:48.695Z,624.00
2019-05-16T01:21:48.672Z,656.00
2019-05-16T01:22:49.178Z,688.00
2019-05-16T01:23:48.650Z,720.00
2019-05-16T01:24:49.277Z,760.00
2019-05-16T01:25:48.685Z,788.00
2019-05-16T01:26:48.621Z,808.00
2019-05-16T01:27:48.701Z,844.00
2019-05-16T01:29:00.619Z,884.00
2019-05-16T01:29:48.581Z,924.00
2019-05-16T01:30:49.060Z,964.00
2019-05-16T01:31:48.562Z,1004.00
2019-05-16T01:32:49.277Z,1048.00
2019-05-16T01:33:48.551Z,1088.00
2019-05-16T01:34:48.534Z,1136.00
2019-05-16T01:35:48.517Z,1176.00
2019-05-16T01:36:48.746Z,1224.00
2019-05-16T01:37:48.948Z,1268.00
2019-05-16T01:38:48.485Z,1312.00
2019-05-16T01:39:48.545Z,1360.00
2019-05-16T01:40:49.118Z,1408.00
2019-05-16T01:41:48.455Z,1456.00
2019-05-16T01:42:48.945Z,1504.00
2019-05-16T01:43:48.548Z,1556.00
2019-05-16T01:44:48.809Z,1604.00
2019-05-16T01:45:48.851Z,1656.00
2019-05-16T01:46:48.399Z,1708.00
2019-05-16T01:47:48.424Z,1760.00
2019-05-16T01:48:48.638Z,1812.00
2019-05-16T01:49:48.890Z,1864.00
2019-05-16T01:50:48.412Z,1916.00
2019-05-16T01:51:48.561Z,1972.00
2019-05-16T01:52:48.892Z,2024.00
2019-05-16T01:53:48.990Z,2076.00
2019-05-16T01:54:48.311Z,2132.00
2019-05-16T01:55:48.871Z,2188.00
2019-05-16T01:56:48.287Z,2244.00
2019-05-16T01:57:48.301Z,2296.00
2019-05-16T01:58:48.943Z,2356.00
2019-05-16T02:00:00.105Z,2408.00
2019-05-16T02:00:58.794Z,2464.00
2019-05-16T02:01:49.230Z,2520.00
2019-05-16T02:02:48.808Z,2580.00
2019-05-16T02:03:48.277Z,2636.00
2019-05-16T02:04:48.582Z,2692.00
2019-05-16T02:05:48.249Z,2748.00
2019-05-16T02:06:54.256Z,2808.00
2019-05-16T02:07:49.178Z,2864.00
2019-05-16T02:08:48.725Z,2920.00
2019-05-16T02:09:48.142Z,2972.00
2019-05-16T02:10:48.157Z,3028.00
2019-05-16T02:11:48.219Z,3088.00
2019-05-16T02:12:48.969Z,3140.00
2019-05-16T02:13:48.603Z,3200.00
2019-05-16T02:14:48.226Z,3252.00
2019-05-16T02:15:48.920Z,3308.00
2019-05-16T02:16:48.060Z,3360.00
2019-05-16T02:17:48.646Z,3416.00
2019-05-16T02:18:48.893Z,3468.00
2019-05-16T02:19:48.538Z,3520.00
2019-05-16T02:20:48.206Z,3576.00
2019-05-16T02:21:50.452Z,3632.00
2019-05-16T02:22:48.307Z,3688.00
2019-05-16T02:23:48.972Z,3744.00
2019-05-16T02:24:48.108Z,3800.00
2019-05-16T02:25:48.909Z,3856.00
2019-05-16T02:26:49.306Z,3916.00
2019-05-16T02:27:48.924Z,3968.00
2019-05-16T02:28:50.556Z,4028.00
2019-05-16T02:29:47.914Z,4084.00
2019-05-16T02:31:01.514Z,4140.00
2019-05-16T02:31:51.111Z,4200.00
2019-05-16T02:32:47.895Z,4260.00
2019-05-16T02:33:50.823Z,4316.00
2019-05-16T02:34:47.867Z,4384.00
2019-05-16T02:35:51.640Z,4440.00
2019-05-16T02:37:08.321Z,5860.00
2019-05-16T02:37:54.696Z,14456.00
2019-05-16T02:38:54.942Z,26240.00
2019-05-16T02:39:51.601Z,37408.00
2019-05-16T02:40:54.386Z,46784.00
2019-05-16T02:41:51.814Z,51520.00
2019-05-16T02:42:47.776Z,52352.00
2019-05-16T02:43:50.653Z,52992.00
2019-05-16T02:44:50.986Z,54208.00
2019-05-16T02:45:47.743Z,54880.00
2019-05-16T02:46:50.708Z,54656.00
2019-05-16T02:47:51.118Z,54752.00
2019-05-16T02:48:47.742Z,55008.00
2019-05-16T02:49:50.299Z,54976.00
2019-05-16T02:50:50.924Z,54784.00
2019-05-16T02:51:50.940Z,55872.00
2019-05-16T02:52:47.658Z,56512.00
2019-05-16T02:53:50.787Z,55808.00
2019-05-16T02:54:47.648Z,56192.00
2019-05-16T02:55:47.765Z,56320.00
2019-05-16T02:56:50.462Z,56480.00
2019-05-16T02:57:47.630Z,57248.00
2019-05-16T02:58:47.608Z,56736.00
2019-05-16T02:59:50.706Z,56704.00
2019-05-16T03:00:51.212Z,56352.00
2019-05-16T03:02:02.158Z,58336.00
2019-05-16T03:02:56.133Z,57856.00
2019-05-16T03:03:47.531Z,57024.00
2019-05-16T03:04:47.525Z,57792.00
2019-05-16T03:05:50.594Z,56704.00
2019-05-16T03:06:47.505Z,56448.00
2019-05-16T03:07:47.810Z,55808.00
2019-05-16T03:08:47.484Z,55232.00
2019-05-16T03:09:47.472Z,54720.00
2019-05-16T03:10:47.471Z,54752.00
2019-05-16T03:11:50.818Z,54688.00
2019-05-16T03:12:47.443Z,55168.00
2019-05-16T03:13:47.425Z,55808.00
2019-05-16T03:14:50.379Z,55872.00
2019-05-16T03:15:50.889Z,55552.00
2019-05-16T03:16:50.409Z,55584.00
2019-05-16T03:17:47.400Z,54720.00
2019-05-16T03:18:47.467Z,53952.00
2019-05-16T03:19:50.836Z,54368.00
2019-05-16T03:20:47.375Z,55008.00
2019-05-16T03:21:50.790Z,54688.00
2019-05-16T03:22:47.327Z,54848.00
2019-05-16T03:23:50.585Z,55008.00
2019-05-16T03:24:47.351Z,54976.00
2019-05-16T03:25:50.524Z,54720.00
2019-05-16T03:26:47.282Z,55552.00
2019-05-16T03:27:47.266Z,56896.00
2019-05-16T03:28:47.253Z,55808.00
2019-05-16T03:29:50.465Z,54176.00
2019-05-16T03:30:47.286Z,54784.00
2019-05-16T03:31:47.230Z,57184.00
2019-05-16T03:32:47.232Z,58112.00
2019-05-16T03:34:06.918Z,59424.00
2019-05-16T03:34:54.152Z,58752.00
2019-05-16T03:35:53.716Z,57440.00
2019-05-16T03:36:53.612Z,56352.00
2019-05-16T03:37:55.534Z,55968.00
2019-05-16T03:38:50.673Z,57248.00
2019-05-16T03:39:47.148Z,59744.00
2019-05-16T03:40:50.877Z,60320.00
2019-05-16T03:41:47.121Z,59584.00
2019-05-16T03:42:47.184Z,61024.00
2019-05-16T03:43:47.113Z,62400.00
2019-05-16T03:44:47.083Z,62464.00
2019-05-16T03:45:47.084Z,61888.00
2019-05-16T03:46:47.079Z,61984.00
2019-05-16T03:47:47.063Z,62240.00
2019-05-16T03:48:47.041Z,61664.00
2019-05-16T03:49:47.028Z,62944.00
2019-05-16T03:50:47.017Z,63968.00
2019-05-16T03:51:47.001Z,63712.00
2019-05-16T03:52:47.037Z,63104.00
2019-05-16T03:53:46.986Z,63520.00
2019-05-16T03:54:46.970Z,61792.00
2019-05-16T03:55:46.953Z,60800.00
2019-05-16T03:56:46.961Z,61152.00
2019-05-16T03:57:46.954Z,62720.00
2019-05-16T03:58:46.964Z,62112.00
2019-05-16T03:59:46.935Z,61344.00
2019-05-16T04:00:46.926Z,62464.00
2019-05-16T04:01:46.919Z,64064.00
2019-05-16T04:02:46.926Z,65312.00
2019-05-16T04:03:47.025Z,65376.00
2019-05-16T04:05:01.794Z,64672.00
2019-05-16T04:05:47.738Z,65056.00
2019-05-16T04:06:46.873Z,66080.00
2019-05-16T04:07:46.857Z,64768.00
2019-05-16T04:08:46.863Z,63744.00
2019-05-16T04:09:46.856Z,64224.00
2019-05-16T04:10:46.796Z,64352.00
2019-05-16T04:11:46.785Z,64000.00
2019-05-16T04:12:46.788Z,65248.00
2019-05-16T04:13:46.774Z,66432.00
2019-05-16T04:14:46.866Z,66048.00
2019-05-16T04:15:46.744Z,66176.00
2019-05-16T04:16:46.739Z,66304.00
2019-05-16T04:17:46.725Z,65312.00
2019-05-16T04:18:46.713Z,63616.00
2019-05-16T04:19:46.699Z,61920.00
2019-05-16T04:20:46.696Z,61632.00
2019-05-16T04:21:46.682Z,61344.00
2019-05-16T04:22:46.679Z,62080.00
2019-05-16T04:23:46.654Z,62848.00
2019-05-16T04:24:46.649Z,63168.00
2019-05-16T04:25:46.772Z,64256.00
2019-05-16T04:26:46.694Z,66336.00
2019-05-16T04:27:46.675Z,69056.00
2019-05-16T04:28:46.643Z,69312.00
2019-05-16T04:29:46.610Z,65248.00
2019-05-16T04:30:46.583Z,62176.00
2019-05-16T04:31:46.585Z,63392.00
2019-05-16T04:32:46.563Z,62912.00
2019-05-16T04:33:46.570Z,59648.00
2019-05-16T04:34:46.532Z,58592.00
2019-05-16T04:36:01.322Z,57760.00
2019-05-16T04:36:46.557Z,57888.00
2019-05-16T04:37:46.500Z,56128.00
2019-05-16T04:38:47.091Z,54464.00
2019-05-16T04:39:46.574Z,57472.00
2019-05-16T04:40:46.470Z,57056.00
2019-05-16T04:41:46.456Z,55328.00
2019-05-16T04:42:46.487Z,54368.00
2019-05-16T04:43:46.470Z,55104.00
2019-05-16T04:44:46.429Z,56032.00
2019-05-16T04:45:46.512Z,54560.00
2019-05-16T04:46:46.403Z,53664.00
2019-05-16T04:47:46.409Z,53760.00
2019-05-16T04:48:46.532Z,52576.00
2019-05-16T04:49:46.432Z,50656.00
2019-05-16T04:50:47.265Z,50624.00
2019-05-16T04:51:46.355Z,48960.00
2019-05-16T04:52:46.343Z,46432.00
2019-05-16T04:53:46.346Z,44064.00
2019-05-16T04:54:46.336Z,42112.00
2019-05-16T04:55:46.320Z,39360.00
2019-05-16T04:56:46.368Z,45472.00
2019-05-16T04:57:46.289Z,45600.00
2019-05-16T04:58:46.286Z,45472.00
2019-05-16T04:59:46.894Z,46368.00
2019-05-16T05:00:51.774Z,45792.00
2019-05-16T05:01:50.846Z,45536.00
2019-05-16T05:02:46.305Z,42368.00
2019-05-16T05:04:01.906Z,40640.00
2019-05-16T05:04:50.703Z,39072.00
2019-05-16T05:05:46.212Z,38304.00
2019-05-16T05:07:00.537Z,40096.00
2019-05-16T05:07:53.192Z,38464.00
2019-05-16T05:08:54.526Z,37824.00
2019-05-16T05:09:47.160Z,37920.00
2019-05-16T05:10:46.338Z,36640.00
2019-05-16T05:11:46.626Z,32512.00
2019-05-16T05:12:46.327Z,23360.00
2019-05-16T05:13:46.166Z,18528.00
2019-05-16T05:14:46.110Z,17728.00
2019-05-16T05:15:46.117Z,17888.00
2019-05-16T05:16:46.101Z,18624.00
2019-05-16T05:17:46.073Z,18560.00
2019-05-16T05:18:46.059Z,17536.00
2019-05-16T05:19:46.075Z,16768.00
2019-05-16T05:20:46.031Z,16512.00
2019-05-16T05:21:46.452Z,16480.00
2019-05-16T05:22:46.020Z,16736.00
2019-05-16T05:23:46.007Z,17632.00
2019-05-16T05:24:45.994Z,19072.00
2019-05-16T05:25:45.987Z,20096.00
2019-05-16T05:26:45.982Z,20768.00
2019-05-16T05:27:45.985Z,26496.00
2019-05-16T05:28:45.950Z,40000.00
2019-05-16T05:29:45.933Z,49792.00
2019-05-16T05:30:45.944Z,42048.00
2019-05-16T05:31:45.961Z,32704.00
2019-05-16T05:32:45.904Z,32544.00
2019-05-16T05:33:45.910Z,34432.00
2019-05-16T05:34:45.894Z,33952.00
2019-05-16T05:35:45.887Z,27136.00
2019-05-16T05:36:45.861Z,23616.00
2019-05-16T05:37:45.950Z,22400.00
2019-05-16T05:39:09.010Z,24000.00
2019-05-16T05:39:46.829Z,26976.00
2019-05-16T05:40:45.942Z,23840.00
2019-05-16T05:41:45.808Z,19264.00
2019-05-16T05:42:45.798Z,20096.00
2019-05-16T05:43:45.828Z,20768.00
2019-05-16T05:44:45.789Z,21696.00
2019-05-16T05:45:45.770Z,23104.00
2019-05-16T05:46:45.755Z,22368.00
2019-05-16T05:47:45.808Z,20224.00
2019-05-16T05:48:46.367Z,19616.00
2019-05-16T05:49:45.737Z,20256.00
2019-05-16T05:50:45.721Z,19520.00
2019-05-16T05:51:45.722Z,18528.00
2019-05-16T05:52:46.256Z,20096.00
2019-05-16T05:53:45.689Z,19648.00
2019-05-16T05:54:45.727Z,18912.00
2019-05-16T05:55:45.678Z,19232.00
2019-05-16T05:56:45.696Z,19552.00
2019-05-16T05:57:45.681Z,18400.00
2019-05-16T05:58:45.639Z,17152.00
2019-05-16T05:59:45.640Z,18656.00
2019-05-16T06:00:45.748Z,19360.00
2019-05-16T06:01:45.610Z,19584.00
2019-05-16T06:02:45.582Z,19552.00
2019-05-16T06:03:45.577Z,19264.00
2019-05-16T06:04:45.559Z,18560.00
2019-05-16T06:05:45.560Z,18880.00
2019-05-16T06:06:45.549Z,19520.00
2019-05-16T06:07:45.530Z,19008.00
2019-05-16T06:08:45.541Z,19296.00
2019-05-16T06:09:57.052Z,20192.00
2019-05-16T06:10:45.646Z,20576.00
2019-05-16T06:11:45.497Z,19616.00
2019-05-16T06:12:45.499Z,19232.00
2019-05-16T06:13:45.482Z,21920.00
2019-05-16T06:14:45.468Z,25504.00
2019-05-16T06:15:45.549Z,25248.00
2019-05-16T06:16:45.450Z,22720.00
2019-05-16T06:17:45.431Z,26432.00
2019-05-16T06:18:45.418Z,28896.00
2019-05-16T06:19:45.405Z,26592.00
2019-05-16T06:20:45.398Z,29504.00
2019-05-16T06:21:45.544Z,32384.00
2019-05-16T06:22:45.370Z,35072.00
2019-05-16T06:23:45.380Z,38112.00
2019-05-16T06:24:45.345Z,23616.00
2019-05-16T06:25:45.337Z,10648.00
2019-05-16T06:26:45.344Z,10008.00
2019-05-16T06:27:45.389Z,9932.00
2019-05-16T06:28:45.304Z,9888.00
2019-05-16T06:29:45.304Z,9876.00
2019-05-16T06:30:45.279Z,9884.00
2019-05-16T06:31:45.270Z,9900.00
2019-05-16T06:32:45.256Z,9920.00
2019-05-16T06:33:45.277Z,9936.00
2019-05-16T06:34:45.234Z,9944.00
2019-05-16T06:35:45.228Z,9952.00
2019-05-16T06:36:45.220Z,9960.00
2019-05-16T06:37:45.215Z,9968.00
2019-05-16T06:38:45.366Z,9976.00
2019-05-16T06:39:45.585Z,9988.00
2019-05-16T06:41:00.068Z,10004.00
2019-05-16T06:41:45.155Z,10012.00
2019-05-16T06:42:45.170Z,10004.00
2019-05-16T06:43:45.146Z,10004.00
2019-05-16T06:44:45.184Z,9980.00
2019-05-16T06:45:45.115Z,10020.00
2019-05-16T06:46:59.549Z,10016.00
2019-05-16T06:47:46.091Z,10028.00
2019-05-16T06:48:45.074Z,10036.00
2019-05-16T06:49:45.263Z,9972.00
2019-05-16T06:50:45.088Z,10072.00
2019-05-16T06:51:45.064Z,10108.00
2019-05-16T06:53:41.439Z,10104.00
2019-05-16T06:54:41.343Z,10124.00
2019-05-16T06:55:41.381Z,10120.00
2019-05-16T06:56:41.464Z,10096.00
2019-05-16T06:57:41.383Z,10092.00
2019-05-16T06:58:47.710Z,10076.00
2019-05-16T06:59:42.332Z,10104.00
2019-05-16T07:00:41.287Z,10140.00
2019-05-16T07:01:41.272Z,9976.00
2019-05-16T07:02:41.264Z,10144.00
2019-05-16T07:03:41.904Z,10156.00
2019-05-16T07:04:41.268Z,10128.00
2019-05-16T07:05:41.279Z,10160.00
2019-05-16T07:06:54.647Z,10164.00
2019-05-16T07:07:42.195Z,10168.00
2019-05-16T07:08:41.188Z,10164.00
2019-05-16T07:09:57.010Z,10164.00
2019-05-16T07:10:42.179Z,10168.00
2019-05-16T07:11:41.246Z,10172.00
2019-05-16T07:12:41.500Z,10180.00
2019-05-16T07:13:41.138Z,10528.00
2019-05-16T07:14:41.130Z,10544.00
2019-05-16T07:15:41.188Z,10544.00
2019-05-16T07:16:41.152Z,10564.00
2019-05-16T07:17:41.110Z,10072.00
2019-05-16T07:18:41.075Z,10252.00
2019-05-16T07:19:41.325Z,10276.00
2019-05-16T07:20:41.061Z,10296.00
2019-05-16T07:21:41.047Z,10316.00
2019-05-16T07:22:41.042Z,10344.00
2019-05-16T07:23:48.016Z,10372.00
2019-05-16T07:24:41.162Z,10408.00
2019-05-16T07:25:40.998Z,10444.00
2019-05-16T07:26:41.005Z,10472.00
2019-05-16T07:27:41.014Z,10500.00
2019-05-16T07:28:40.967Z,10528.00
2019-05-16T07:29:40.952Z,10560.00
2019-05-16T07:30:40.950Z,10588.00
2019-05-16T07:31:40.939Z,10604.00
2019-05-16T07:32:40.927Z,10628.00
2019-05-16T07:33:40.934Z,10644.00
2019-05-16T07:34:40.899Z,10656.00
2019-05-16T07:35:40.937Z,10672.00
2019-05-16T07:36:40.908Z,10680.00
2019-05-16T07:37:40.871Z,10672.00
2019-05-16T07:38:40.857Z,10700.00
2019-05-16T07:39:41.797Z,10604.00
2019-05-16T07:40:40.892Z,10612.00
2019-05-16T07:41:40.830Z,10592.00
2019-05-16T07:42:40.858Z,10688.00
2019-05-16T07:43:40.802Z,10796.00
2019-05-16T07:44:40.927Z,10668.00
2019-05-16T07:45:40.799Z,10236.00
2019-05-16T07:46:44.508Z,10852.00
2019-05-16T07:47:40.764Z,10848.00
2019-05-16T07:48:40.747Z,10868.00
2019-05-16T07:49:40.808Z,10840.00
2019-05-16T07:50:40.746Z,10820.00
2019-05-16T07:51:40.800Z,10828.00
2019-05-16T07:52:40.737Z,10788.00
2019-05-16T07:53:40.709Z,10792.00
2019-05-16T07:54:52.819Z,10720.00
2019-05-16T07:55:40.886Z,10452.00
2019-05-16T07:56:41.046Z,10600.00
2019-05-16T07:57:40.686Z,10444.00
2019-05-16T07:58:41.425Z,10520.00
2019-05-16T07:59:40.625Z,10600.00
2019-05-16T08:00:49.828Z,10552.00
2019-05-16T08:01:43.395Z,10568.00
2019-05-16T08:02:40.601Z,10548.00
2019-05-16T08:03:41.271Z,10388.00
2019-05-16T08:04:40.678Z,9500.00
2019-05-16T08:05:41.338Z,10508.00
2019-05-16T08:06:41.584Z,10588.00
2019-05-16T08:07:40.929Z,10556.00
2019-05-16T08:08:40.537Z,10572.00
2019-05-16T08:09:41.389Z,10556.00
2019-05-16T08:10:46.325Z,10564.00
2019-05-16T08:11:41.582Z,10556.00
2019-05-16T08:12:40.925Z,10552.00
2019-05-16T08:13:40.492Z,10544.00
2019-05-16T08:14:41.480Z,10576.00
2019-05-16T08:15:40.814Z,10600.00
2019-05-16T08:16:40.934Z,10656.00
2019-05-16T08:17:44.547Z,10676.00
2019-05-16T08:18:44.976Z,10680.00
2019-05-16T08:19:42.390Z,10672.00
2019-05-16T08:20:41.662Z,10684.00
2019-05-16T08:21:41.143Z,10680.00
2019-05-16T08:22:41.574Z,10700.00
2019-05-16T08:23:41.193Z,10708.00
2019-05-16T08:24:40.372Z,10700.00
2019-05-16T08:25:53.172Z,10692.00
2019-05-16T08:26:43.204Z,10700.00
2019-05-16T08:27:41.336Z,10696.00
2019-05-16T08:28:41.240Z,10692.00
2019-05-16T08:29:40.561Z,10688.00
2019-05-16T08:30:41.188Z,10684.00
2019-05-16T08:31:42.941Z,10680.00
2019-05-16T08:33:41.737Z,10552.00
2019-05-16T08:34:40.939Z,10428.00
2019-05-16T08:35:41.429Z,10624.00
2019-05-16T08:36:41.031Z,10616.00
2019-05-16T08:37:46.622Z,10672.00
2019-05-16T08:38:43.447Z,10664.00
2019-05-16T08:39:41.320Z,10652.00
2019-05-16T08:41:03.487Z,10628.00
2019-05-16T08:42:41.847Z,10600.00
2019-05-16T08:43:41.564Z,10580.00
2019-05-16T08:44:41.837Z,10572.00
2019-05-16T08:47:42.395Z,10516.00
2019-05-16T08:48:42.333Z,10508.00
2019-05-16T08:49:42.225Z,10480.00
2019-05-16T08:50:11.320Z,10548.00
2019-05-16T08:50:11.521Z,10676.00
2019-05-16T08:50:42.090Z,10444.00
2019-05-16T08:51:42.708Z,10424.00
2019-05-16T08:52:43.373Z,10388.00
2019-05-16T08:53:43.338Z,10368.00
2019-05-16T08:54:43.836Z,10352.00
2019-05-16T08:55:43.361Z,10336.00
2019-05-16T08:56:54.255Z,10172.00
2019-05-16T08:57:40.952Z,9856.00
2019-05-16T08:58:41.165Z,10212.00
2019-05-16T08:59:41.089Z,10248.00
2019-05-16T09:00:41.912Z,10204.00
2019-05-16T09:01:48.289Z,10264.00
2019-05-16T09:03:41.765Z,10252.00
2019-05-16T09:05:42.946Z,10192.00
2019-05-16T09:06:42.459Z,10188.00
2019-05-16T09:07:40.595Z,10180.00
2019-05-16T09:08:39.921Z,10172.00
2019-05-16T09:09:44.448Z,10148.00
2019-05-16T09:10:15.893Z,10232.00
2019-05-16T09:10:29.684Z,10556.00
2019-05-16T09:10:55.794Z,10152.00
2019-05-16T09:11:44.846Z,10160.00
2019-05-16T09:12:41.072Z,10160.00
2019-05-16T09:13:39.821Z,10156.00
2019-05-16T09:14:39.913Z,10148.00
2019-05-16T09:15:39.794Z,10148.00
2019-05-16T09:16:39.780Z,10140.00
2019-05-16T09:17:39.768Z,10128.00
2019-05-16T09:18:32.825Z,10236.00
2019-05-16T09:18:39.506Z,10624.00
2019-05-16T09:18:40.991Z,10112.00
2019-05-16T09:19:39.780Z,10084.00
2019-05-16T09:20:44.444Z,10084.00
2019-05-16T09:21:39.733Z,10068.00
2019-05-16T09:22:39.732Z,10072.00
2019-05-16T09:23:39.744Z,9980.00
2019-05-16T09:24:39.821Z,10044.00
2019-05-16T09:25:39.683Z,9960.00
2019-05-16T09:26:39.694Z,10056.00
2019-05-16T09:27:53.335Z,10104.00
2019-05-16T09:28:39.653Z,10064.00
2019-05-16T09:29:39.638Z,10076.00
2019-05-16T09:30:39.638Z,10096.00
2019-05-16T09:31:39.626Z,10172.00
2019-05-16T09:32:42.615Z,10088.00
2019-05-16T09:33:39.602Z,10072.00
2019-05-16T09:34:39.604Z,10068.00
2019-05-16T09:35:39.867Z,10052.00
2019-05-16T09:36:39.694Z,10048.00
2019-05-16T09:37:39.648Z,10052.00
2019-05-16T09:38:39.537Z,10052.00
2019-05-16T09:39:39.579Z,10048.00
2019-05-16T09:40:39.569Z,10044.00
2019-05-16T09:41:54.278Z,10040.00
2019-05-16T09:42:40.885Z,10024.00
2019-05-16T09:43:39.524Z,10016.00
2019-05-16T09:44:39.600Z,10012.00
2019-05-16T09:45:39.467Z,9992.00
2019-05-16T09:46:39.473Z,9960.00
2019-05-16T09:47:39.486Z,9976.00
2019-05-16T09:48:39.491Z,9984.00
2019-05-16T09:49:39.464Z,9976.00
2019-05-16T09:50:39.569Z,9952.00
2019-05-16T09:51:39.439Z,9968.00
2019-05-16T09:52:39.406Z,9968.00
2019-05-16T09:53:39.378Z,9952.00
2019-05-16T09:54:39.369Z,9948.00
2019-05-16T09:55:39.353Z,9936.00
2019-05-16T09:56:39.346Z,9932.00
2019-05-16T09:57:39.607Z,9916.00
2019-05-16T09:58:52.171Z,9896.00
2019-05-16T09:59:39.402Z,9908.00
2019-05-16T10:00:39.372Z,9908.00
2019-05-16T10:01:39.359Z,10520.00
2019-05-16T10:02:39.320Z,10504.00
2019-05-16T10:03:39.299Z,10496.00
2019-05-16T10:04:39.410Z,10476.00
2019-05-16T10:05:39.253Z,10476.00
2019-05-16T10:06:39.241Z,10444.00
2019-05-16T10:07:39.247Z,9844.00
2019-05-16T10:08:39.232Z,9808.00
2019-05-16T10:09:44.994Z,9844.00
2019-05-16T10:10:40.274Z,9836.00
2019-05-16T10:11:42.142Z,9828.00
2019-05-16T10:12:39.174Z,9792.00
2019-05-16T10:13:39.235Z,9816.00
2019-05-16T10:14:39.150Z,9816.00
2019-05-16T10:15:40.227Z,9816.00
2019-05-16T10:16:39.144Z,9804.00
2019-05-16T10:17:39.146Z,9792.00
2019-05-16T10:18:39.109Z,9784.00
2019-05-16T10:19:39.439Z,9784.00
2019-05-16T10:20:39.157Z,9772.00
2019-05-16T10:21:39.081Z,9764.00
2019-05-16T10:22:39.105Z,9760.00
2019-05-16T10:23:39.066Z,9764.00
2019-05-16T10:24:39.134Z,9756.00
2019-05-16T10:25:39.158Z,9756.00
2019-05-16T10:26:53.196Z,9752.00
2019-05-16T10:27:40.002Z,9756.00
2019-05-16T10:28:38.994Z,9744.00
2019-05-16T10:29:38.986Z,9688.00
2019-05-16T10:30:39.013Z,9704.00
2019-05-16T10:31:48.399Z,9720.00
2019-05-16T10:32:40.021Z,9720.00
2019-05-16T10:33:39.306Z,9768.00
2019-05-16T10:34:38.927Z,9792.00
2019-05-16T10:35:38.922Z,9796.00
2019-05-16T10:36:38.930Z,9788.00
2019-05-16T10:37:38.896Z,9792.00
2019-05-16T10:38:38.895Z,9796.00
2019-05-16T10:39:38.879Z,9760.00
2019-05-16T10:40:38.874Z,9788.00
2019-05-16T10:41:38.852Z,9760.00
2019-05-16T10:42:38.866Z,9740.00
2019-05-16T10:43:38.830Z,9764.00
2019-05-16T10:44:41.652Z,9760.00
2019-05-16T10:45:38.812Z,9748.00
2019-05-16T10:46:38.803Z,9204.00
2019-05-16T10:47:38.831Z,8000.00
2019-05-16T10:48:38.776Z,6932.00
2019-05-16T10:49:41.776Z,8516.00
2019-05-16T10:50:38.778Z,9652.00
2019-05-16T10:51:38.768Z,9660.00
2019-05-16T10:52:38.732Z,9524.00
2019-05-16T10:54:04.507Z,8952.00
2019-05-16T10:54:54.173Z,8520.00
2019-05-16T10:55:39.694Z,7960.00
2019-05-16T10:56:40.417Z,8832.00
2019-05-16T10:57:51.376Z,9640.00
2019-05-16T10:59:03.853Z,9624.00
2019-05-16T11:00:04.161Z,9596.00
2019-05-16T11:01:05.008Z,9592.00
2019-05-16T11:01:39.631Z,9580.00
2019-05-16T11:02:38.770Z,9544.00
2019-05-16T11:03:38.624Z,9532.00
2019-05-16T11:04:53.857Z,9536.00
2019-05-16T11:05:39.873Z,9524.00
2019-05-16T11:06:38.582Z,9532.00
2019-05-16T11:07:38.601Z,9532.00
2019-05-16T11:08:39.588Z,9544.00
2019-05-16T11:09:39.424Z,9528.00
2019-05-16T11:10:38.575Z,9536.00
2019-05-16T11:11:38.524Z,9464.00
2019-05-16T11:12:50.688Z,9540.00
2019-05-16T11:13:39.577Z,9548.00
2019-05-16T11:14:38.528Z,9516.00
2019-05-16T11:15:38.516Z,9536.00
2019-05-16T11:16:38.471Z,9564.00
2019-05-16T11:17:38.468Z,9576.00
2019-05-16T11:18:38.447Z,9584.00
2019-05-16T11:19:38.436Z,9596.00
2019-05-16T11:20:38.470Z,9564.00
2019-05-16T11:21:38.460Z,9632.00
2019-05-16T11:22:38.405Z,9620.00
2019-05-16T11:23:38.392Z,9640.00
2019-05-16T11:24:38.413Z,9636.00
2019-05-16T11:25:38.375Z,9620.00
2019-05-16T11:26:38.379Z,9584.00
2019-05-16T11:27:38.354Z,9592.00
2019-05-16T11:28:51.506Z,9596.00
2019-05-16T11:29:38.328Z,9592.00
2019-05-16T11:30:38.355Z,9592.00
2019-05-16T11:31:38.356Z,9580.00
2019-05-16T11:32:38.290Z,9556.00
2019-05-16T11:33:38.279Z,9516.00
2019-05-16T11:34:38.299Z,9484.00
2019-05-16T11:35:38.391Z,9476.00
2019-05-16T11:36:38.245Z,9444.00
2019-05-16T11:37:38.289Z,9428.00
2019-05-16T11:38:38.234Z,9428.00
2019-05-16T11:39:38.217Z,9420.00
2019-05-16T11:40:38.209Z,9412.00
2019-05-16T11:41:38.190Z,9396.00
2019-05-16T11:42:38.183Z,9388.00
2019-05-16T11:43:38.192Z,9384.00
2019-05-16T11:44:38.330Z,9044.00
2019-05-16T11:45:38.167Z,9148.00
2019-05-16T11:46:38.134Z,9404.00
2019-05-16T11:47:38.137Z,9368.00
2019-05-16T11:48:38.112Z,9404.00
2019-05-16T11:49:38.115Z,9380.00
2019-05-16T11:50:38.098Z,9408.00
2019-05-16T11:51:38.466Z,9436.00
2019-05-16T11:52:40.671Z,9404.00
2019-05-16T11:53:38.096Z,9432.00
2019-05-16T11:54:38.057Z,9460.00
2019-05-16T11:55:50.340Z,9496.00
2019-05-16T11:56:39.021Z,9512.00
2019-05-16T11:57:38.130Z,9576.00
2019-05-16T11:58:38.001Z,9612.00